createdAt,value
2018-12-09T00:00:32.136Z,87.26
2018-12-09T00:01:32.111Z,86.79
2018-12-09T00:02:32.093Z,86.79
2018-12-09T00:03:32.078Z,87.54
2018-12-09T00:04:32.065Z,87.45
2018-12-09T00:05:32.045Z,86.88
2018-12-09T00:06:32.027Z,87.64
2018-12-09T00:07:32.008Z,87.07
2018-12-09T00:08:31.996Z,87.07
2018-12-09T00:09:31.982Z,86.88
2018-12-09T00:10:31.960Z,87.07
2018-12-09T00:11:31.947Z,87.16
2018-12-09T00:12:31.928Z,86.88
2018-12-09T00:13:31.974Z,86.60
2018-12-09T00:14:31.895Z,86.41
2018-12-09T00:15:31.881Z,86.41
2018-12-09T00:16:31.865Z,86.50
2018-12-09T00:17:31.841Z,86.03
2018-12-09T00:18:31.829Z,86.03
2018-12-09T00:19:31.809Z,85.93
2018-12-09T00:20:31.793Z,86.03
2018-12-09T00:21:31.776Z,86.03
2018-12-09T00:22:31.768Z,85.93
2018-12-09T00:23:31.745Z,85.93
2018-12-09T00:24:31.732Z,86.31
2018-12-09T00:25:31.713Z,86.22
2018-12-09T00:26:31.702Z,86.31
2018-12-09T00:27:31.678Z,86.41
2018-12-09T00:28:31.666Z,86.69
2018-12-09T00:29:31.647Z,86.69
2018-12-09T00:30:31.642Z,86.69
2018-12-09T00:31:31.617Z,86.98
2018-12-09T00:32:31.601Z,87.26
2018-12-09T00:33:31.589Z,87.45
2018-12-09T00:34:31.571Z,86.88
2018-12-09T00:35:31.547Z,87.07
2018-12-09T00:36:31.531Z,87.07
2018-12-09T00:37:31.514Z,86.88
2018-12-09T00:38:31.497Z,87.64
2018-12-09T00:39:31.480Z,87.35
2018-12-09T00:40:31.470Z,87.45
2018-12-09T00:41:31.450Z,86.98
2018-12-09T00:42:31.433Z,86.79
2018-12-09T00:43:31.424Z,86.88
2018-12-09T00:44:31.406Z,87.16
2018-12-09T00:45:31.382Z,87.64
2018-12-09T00:46:31.363Z,87.16
2018-12-09T00:47:31.349Z,87.26
2018-12-09T00:48:31.327Z,88.11
2018-12-09T00:49:31.320Z,86.98
2018-12-09T00:50:31.295Z,87.45
2018-12-09T00:51:31.290Z,86.69
2018-12-09T00:52:31.270Z,87.26
2018-12-09T00:53:31.250Z,87.07
2018-12-09T00:54:31.228Z,86.98
2018-12-09T00:55:31.215Z,86.41
2018-12-09T00:56:31.198Z,86.60
2018-12-09T00:57:31.183Z,86.60
2018-12-09T00:58:31.165Z,86.41
2018-12-09T00:59:31.150Z,86.41
2018-12-09T01:00:31.134Z,87.07
2018-12-09T01:01:31.120Z,86.98
2018-12-09T01:02:31.096Z,87.02
2018-12-09T01:03:31.079Z,87.31
2018-12-09T01:04:31.075Z,87.69
2018-12-09T01:05:31.049Z,87.69
2018-12-09T01:06:31.042Z,88.26
2018-12-09T01:07:31.019Z,88.54
2018-12-09T01:08:31.005Z,88.26
2018-12-09T01:09:30.986Z,88.45
2018-12-09T01:10:30.965Z,88.64
2018-12-09T01:11:31.032Z,88.17
2018-12-09T01:12:30.943Z,88.45
2018-12-09T01:13:30.916Z,88.26
2018-12-09T01:14:30.898Z,88.17
2018-12-09T01:15:30.886Z,88.07
2018-12-09T01:16:30.868Z,88.26
2018-12-09T01:17:30.852Z,88.07
2018-12-09T01:18:30.834Z,88.35
2018-12-09T01:19:30.817Z,88.35
2018-12-09T01:20:30.803Z,87.88
2018-12-09T01:21:30.783Z,88.07
2018-12-09T01:22:30.765Z,87.02
2018-12-09T01:23:30.743Z,87.40
2018-12-09T01:24:30.731Z,87.40
2018-12-09T01:25:30.713Z,87.12
2018-12-09T01:26:30.714Z,87.02
2018-12-09T01:27:30.680Z,87.50
2018-12-09T01:28:30.664Z,87.35
2018-12-09T01:29:30.648Z,87.12
2018-12-09T01:30:30.630Z,87.31
2018-12-09T01:31:30.613Z,87.02
2018-12-09T01:32:30.600Z,87.40
2018-12-09T01:33:30.578Z,87.88
2018-12-09T01:34:30.562Z,88.07
2018-12-09T01:35:30.549Z,88.45
2018-12-09T01:36:30.529Z,88.26
2018-12-09T01:37:30.510Z,88.45
2018-12-09T01:38:30.493Z,89.20
2018-12-09T01:39:30.479Z,88.92
2018-12-09T01:40:30.463Z,89.11
2018-12-09T01:41:30.447Z,89.20
2018-12-09T01:42:30.424Z,88.82
2018-12-09T01:43:30.412Z,88.45
2018-12-09T01:44:30.397Z,88.64
2018-12-09T01:45:30.378Z,88.35
2018-12-09T01:46:30.413Z,88.73
2018-12-09T01:47:30.347Z,88.07
2018-12-09T01:48:30.327Z,88.45
2018-12-09T01:49:30.307Z,88.45
2018-12-09T01:50:30.295Z,88.35
2018-12-09T01:51:30.271Z,88.73
2018-12-09T01:52:30.258Z,88.64
2018-12-09T01:53:30.242Z,87.98
2018-12-09T01:54:30.231Z,87.98
2018-12-09T01:55:30.212Z,87.88
2018-12-09T01:56:30.201Z,88.54
2018-12-09T01:57:30.173Z,88.54
2018-12-09T01:58:30.162Z,88.82
2018-12-09T01:59:30.145Z,88.45
2018-12-09T02:00:30.124Z,88.64
2018-12-09T02:01:30.106Z,88.92
2018-12-09T02:02:30.090Z,88.82
2018-12-09T02:03:30.076Z,89.01
2018-12-09T02:04:30.056Z,88.73
2018-12-09T02:05:30.044Z,89.01
2018-12-09T02:06:30.025Z,89.01
2018-12-09T02:07:30.005Z,88.73
2018-12-09T02:08:29.992Z,88.54
2018-12-09T02:09:29.973Z,88.73
2018-12-09T02:10:29.960Z,88.92
2018-12-09T02:11:29.939Z,88.64
2018-12-09T02:12:29.921Z,89.49
2018-12-09T02:13:29.900Z,89.49
2018-12-09T02:14:29.889Z,89.49
2018-12-09T02:15:29.870Z,89.30
2018-12-09T02:16:29.854Z,89.30
2018-12-09T02:17:29.834Z,89.49
2018-12-09T02:18:29.815Z,89.68
2018-12-09T02:19:29.800Z,88.73
2018-12-09T02:20:29.792Z,88.92
2018-12-09T02:21:29.772Z,88.82
2018-12-09T02:22:29.749Z,88.73
2018-12-09T02:23:29.733Z,89.01
2018-12-09T02:24:29.717Z,88.73
2018-12-09T02:25:29.701Z,88.73
2018-12-09T02:26:29.679Z,88.54
2018-12-09T02:27:29.666Z,88.45
2018-12-09T02:28:29.651Z,88.07
2018-12-09T02:29:29.637Z,87.40
2018-12-09T02:30:29.615Z,87.83
2018-12-09T02:31:29.602Z,87.59
2018-12-09T02:32:29.584Z,87.26
2018-12-09T02:33:29.570Z,87.26
2018-12-09T02:34:29.554Z,87.64
2018-12-09T02:35:29.533Z,87.16
2018-12-09T02:36:29.516Z,87.92
2018-12-09T02:37:29.497Z,87.73
2018-12-09T02:38:29.511Z,87.35
2018-12-09T02:39:29.464Z,87.07
2018-12-09T02:40:29.447Z,87.35
2018-12-09T02:41:29.433Z,87.64
2018-12-09T02:42:29.419Z,86.79
2018-12-09T02:43:29.399Z,87.16
2018-12-09T02:44:29.388Z,87.35
2018-12-09T02:45:29.365Z,86.98
2018-12-09T02:46:29.357Z,86.60
2018-12-09T02:47:29.491Z,87.83
2018-12-09T02:48:29.329Z,87.16
2018-12-09T02:49:29.300Z,87.16
2018-12-09T02:50:29.276Z,86.79
2018-12-09T02:51:29.264Z,87.26
2018-12-09T02:52:29.255Z,87.12
2018-12-09T02:53:29.228Z,87.98
2018-12-09T02:54:29.217Z,88.35
2018-12-09T02:55:29.199Z,87.98
2018-12-09T02:56:29.180Z,88.07
2018-12-09T02:57:29.176Z,88.17
2018-12-09T02:58:29.147Z,88.54
2018-12-09T02:59:29.131Z,88.92
2018-12-09T03:00:29.111Z,88.73
2018-12-09T03:01:29.096Z,88.35
2018-12-09T03:02:29.080Z,88.54
2018-12-09T03:03:29.064Z,89.01
2018-12-09T03:04:29.053Z,88.92
2018-12-09T03:05:29.030Z,88.54
2018-12-09T03:06:29.021Z,88.64
2018-12-09T03:07:29.001Z,88.73
2018-12-09T03:08:28.983Z,88.92
2018-12-09T03:09:28.964Z,88.92
2018-12-09T03:10:28.947Z,88.82
2018-12-09T03:11:28.930Z,88.73
2018-12-09T03:12:28.916Z,88.73
2018-12-09T03:13:28.894Z,88.07
2018-12-09T03:14:28.882Z,88.26
2018-12-09T03:15:28.864Z,88.07
2018-12-09T03:16:28.847Z,88.45
2018-12-09T03:17:28.830Z,87.50
2018-12-09T03:18:28.814Z,87.21
2018-12-09T03:19:28.793Z,86.50
2018-12-09T03:20:28.777Z,86.50
2018-12-09T03:21:28.761Z,86.60
2018-12-09T03:22:28.758Z,87.54
2018-12-09T03:23:28.726Z,87.45
2018-12-09T03:24:28.710Z,87.16
2018-12-09T03:25:28.692Z,88.11
2018-12-09T03:26:28.677Z,87.92
2018-12-09T03:27:28.660Z,87.64
2018-12-09T03:28:28.649Z,88.02
2018-12-09T03:29:28.627Z,88.11
2018-12-09T03:30:28.610Z,87.73
2018-12-09T03:31:28.598Z,87.92
2018-12-09T03:32:28.586Z,87.83
2018-12-09T03:33:28.560Z,87.73
2018-12-09T03:34:28.551Z,87.83
2018-12-09T03:35:28.538Z,87.83
2018-12-09T03:36:28.512Z,87.83
2018-12-09T03:37:28.496Z,87.35
2018-12-09T03:38:28.474Z,87.26
2018-12-09T03:39:28.464Z,87.07
2018-12-09T03:40:28.446Z,87.26
2018-12-09T03:41:28.428Z,87.83
2018-12-09T03:42:28.404Z,87.35
2018-12-09T03:43:28.396Z,87.26
2018-12-09T03:44:28.371Z,87.83
2018-12-09T03:45:28.361Z,88.02
2018-12-09T03:46:28.341Z,87.73
2018-12-09T03:47:28.325Z,87.64
2018-12-09T03:48:28.303Z,87.73
2018-12-09T03:49:28.290Z,88.21
2018-12-09T03:50:28.277Z,87.54
2018-12-09T03:51:28.258Z,87.73
2018-12-09T03:52:28.242Z,87.92
2018-12-09T03:53:28.228Z,87.73
2018-12-09T03:54:28.206Z,87.64
2018-12-09T03:55:28.194Z,87.45
2018-12-09T03:56:28.175Z,87.54
2018-12-09T03:57:28.154Z,87.83
2018-12-09T03:58:28.150Z,87.92
2018-12-09T03:59:28.125Z,87.45
2018-12-09T04:00:28.111Z,87.16
2018-12-09T04:01:28.088Z,87.54
2018-12-09T04:02:28.078Z,87.54
2018-12-09T04:03:28.060Z,87.73
2018-12-09T04:04:28.041Z,88.11
2018-12-09T04:05:28.028Z,88.17
2018-12-09T04:06:28.004Z,88.30
2018-12-09T04:07:28.003Z,88.45
2018-12-09T04:08:27.979Z,88.45
2018-12-09T04:09:27.955Z,89.25
2018-12-09T04:10:27.938Z,89.06
2018-12-09T04:11:27.930Z,88.78
2018-12-09T04:12:27.909Z,88.78
2018-12-09T04:13:27.887Z,88.54
2018-12-09T04:14:27.875Z,88.59
2018-12-09T04:15:27.856Z,89.06
2018-12-09T04:16:27.844Z,88.68
2018-12-09T04:17:27.824Z,88.59
2018-12-09T04:18:27.808Z,88.49
2018-12-09T04:19:27.791Z,88.21
2018-12-09T04:20:27.779Z,88.40
2018-12-09T04:21:27.759Z,88.21
2018-12-09T04:22:27.742Z,88.02
2018-12-09T04:23:27.719Z,88.40
2018-12-09T04:24:27.706Z,88.40
2018-12-09T04:25:27.689Z,88.40
2018-12-09T04:26:27.673Z,88.59
2018-12-09T04:27:27.656Z,88.68
2018-12-09T04:28:27.641Z,89.15
2018-12-09T04:29:27.619Z,89.44
2018-12-09T04:30:27.603Z,89.15
2018-12-09T04:31:27.597Z,89.82
2018-12-09T04:32:27.572Z,89.82
2018-12-09T04:33:27.566Z,90.10
2018-12-09T04:34:27.538Z,90.81
2018-12-09T04:35:27.523Z,90.53
2018-12-09T04:36:27.501Z,90.34
2018-12-09T04:37:27.497Z,90.25
2018-12-09T04:38:27.477Z,90.44
2018-12-09T04:39:27.454Z,90.34
2018-12-09T04:40:27.436Z,90.91
2018-12-09T04:41:27.420Z,90.91
2018-12-09T04:42:27.405Z,90.44
2018-12-09T04:43:27.388Z,90.34
2018-12-09T04:44:27.368Z,90.34
2018-12-09T04:45:27.350Z,90.39
2018-12-09T04:46:27.339Z,90.95
2018-12-09T04:47:27.319Z,90.95
2018-12-09T04:48:27.310Z,91.29
2018-12-09T04:49:27.284Z,91.14
2018-12-09T04:50:27.271Z,91.24
2018-12-09T04:51:27.250Z,91.24
2018-12-09T04:52:27.239Z,91.81
2018-12-09T04:53:27.215Z,91.52
2018-12-09T04:54:27.199Z,91.62
2018-12-09T04:55:27.185Z,91.81
2018-12-09T04:56:27.170Z,91.81
2018-12-09T04:57:27.151Z,91.71
2018-12-09T04:58:27.133Z,91.90
2018-12-09T04:59:27.118Z,91.90
2018-12-09T05:00:27.104Z,91.90
2018-12-09T05:01:27.086Z,91.90
2018-12-09T05:02:27.072Z,91.81
2018-12-09T05:03:27.054Z,91.90
2018-12-09T05:04:27.036Z,91.90
2018-12-09T05:05:27.007Z,92.28
2018-12-09T05:06:26.999Z,92.57
2018-12-09T05:07:26.986Z,92.43
2018-12-09T05:08:26.969Z,92.90
2018-12-09T05:09:26.950Z,92.94
2018-12-09T05:10:26.936Z,92.80
2018-12-09T05:11:26.918Z,92.57
2018-12-09T05:12:26.897Z,92.80
2018-12-09T05:13:26.884Z,93.13
2018-12-09T05:14:26.867Z,92.94
2018-12-09T05:15:26.852Z,92.85
2018-12-09T05:16:26.827Z,92.94
2018-12-09T05:17:26.823Z,92.76
2018-12-09T05:18:26.900Z,92.94
2018-12-09T05:19:26.779Z,92.61
2018-12-09T05:20:26.767Z,93.32
2018-12-09T05:21:26.754Z,93.32
2018-12-09T05:22:26.730Z,93.04
2018-12-09T05:23:26.731Z,93.13
2018-12-09T05:24:26.699Z,93.13
2018-12-09T05:25:26.689Z,93.51
2018-12-09T05:26:26.660Z,93.51
2018-12-09T05:27:26.646Z,93.94
2018-12-09T05:28:26.631Z,94.04
2018-12-09T05:29:26.614Z,93.99
2018-12-09T05:30:26.595Z,93.75
2018-12-09T05:31:26.582Z,93.70
2018-12-09T05:32:26.564Z,93.99
2018-12-09T05:33:26.542Z,94.13
2018-12-09T05:34:26.538Z,94.08
2018-12-09T05:35:26.513Z,94.18
2018-12-09T05:36:26.503Z,94.18
2018-12-09T05:37:26.480Z,93.99
2018-12-09T05:38:26.576Z,93.51
2018-12-09T05:39:26.445Z,93.89
2018-12-09T05:40:26.425Z,93.51
2018-12-09T05:41:26.412Z,93.70
2018-12-09T05:42:26.416Z,93.70
2018-12-09T05:43:26.385Z,93.89
2018-12-09T05:44:26.364Z,93.94
2018-12-09T05:45:26.342Z,94.56
2018-12-09T05:46:26.330Z,94.27
2018-12-09T05:47:26.323Z,93.94
2018-12-09T05:48:26.296Z,94.51
2018-12-09T05:49:26.280Z,94.23
2018-12-09T05:50:26.265Z,94.84
2018-12-09T05:51:26.250Z,94.89
2018-12-09T05:52:26.229Z,94.79
2018-12-09T05:53:26.209Z,94.79
2018-12-09T05:54:26.198Z,94.89
2018-12-09T05:55:26.177Z,94.98
2018-12-09T05:56:26.170Z,94.89
2018-12-09T05:57:26.147Z,95.55
2018-12-09T05:58:26.128Z,95.45
2018-12-09T05:59:26.109Z,95.26
2018-12-09T06:00:26.095Z,95.64
2018-12-09T06:01:26.084Z,96.02
2018-12-09T06:02:26.062Z,95.64
2018-12-09T06:03:26.105Z,96.02
2018-12-09T06:04:26.032Z,95.93
2018-12-09T06:05:26.013Z,96.02
2018-12-09T06:06:25.997Z,96.97
2018-12-09T06:07:25.979Z,96.88
2018-12-09T06:08:25.958Z,96.59
2018-12-09T06:09:25.949Z,97.06
2018-12-09T06:10:25.926Z,96.50
2018-12-09T06:11:25.911Z,96.50
2018-12-09T06:12:25.890Z,97.73
2018-12-09T06:13:25.876Z,97.35
2018-12-09T06:14:25.857Z,97.44
2018-12-09T06:15:25.844Z,97.73
2018-12-09T06:16:25.822Z,97.25
2018-12-09T06:17:25.807Z,97.25
2018-12-09T06:18:25.792Z,97.16
2018-12-09T06:19:25.774Z,97.54
2018-12-09T06:20:25.755Z,97.63
2018-12-09T06:21:25.739Z,97.54
2018-12-09T06:22:25.720Z,97.73
2018-12-09T06:23:25.707Z,97.06
2018-12-09T06:24:25.693Z,97.16
2018-12-09T06:25:25.675Z,97.44
2018-12-09T06:26:25.659Z,97.06
2018-12-09T06:27:25.641Z,96.59
2018-12-09T06:28:25.625Z,96.97
2018-12-09T06:29:25.608Z,96.78
2018-12-09T06:30:25.592Z,96.88
2018-12-09T06:31:25.568Z,97.35
2018-12-09T06:32:25.561Z,97.54
2018-12-09T06:33:25.543Z,97.54
2018-12-09T06:34:25.519Z,97.54
2018-12-09T06:35:25.511Z,97.35
2018-12-09T06:36:25.488Z,97.44
2018-12-09T06:37:25.471Z,97.35
2018-12-09T06:38:25.538Z,97.35
2018-12-09T06:39:25.434Z,97.54
2018-12-09T06:40:25.420Z,97.54
2018-12-09T06:41:25.401Z,96.88
2018-12-09T06:42:25.386Z,96.40
2018-12-09T06:43:25.373Z,96.97
2018-12-09T06:44:25.351Z,96.97
2018-12-09T06:45:25.337Z,97.06
2018-12-09T06:46:25.317Z,96.59
2018-12-09T06:47:25.300Z,96.78
2018-12-09T06:48:25.294Z,96.78
2018-12-09T06:49:25.269Z,96.88
2018-12-09T06:50:25.262Z,96.78
2018-12-09T06:51:25.235Z,96.78
2018-12-09T06:52:25.214Z,96.59
2018-12-09T06:53:25.204Z,96.69
2018-12-09T06:54:25.188Z,96.78
2018-12-09T06:55:25.172Z,96.59
2018-12-09T06:56:25.154Z,96.78
2018-12-09T06:57:25.131Z,96.50
2018-12-09T06:58:25.116Z,96.69
2018-12-09T06:59:25.100Z,96.97
2018-12-09T07:00:25.080Z,96.59
2018-12-09T07:01:25.070Z,96.88
2018-12-09T07:02:25.044Z,96.78
2018-12-09T07:03:25.038Z,96.69
2018-12-09T07:04:25.021Z,96.02
2018-12-09T07:05:25.001Z,96.21
2018-12-09T07:06:24.981Z,95.79
2018-12-09T07:07:24.962Z,96.45
2018-12-09T07:08:24.947Z,96.31
2018-12-09T07:09:24.930Z,96.26
2018-12-09T07:10:24.915Z,96.17
2018-12-09T07:11:24.893Z,96.17
2018-12-09T07:12:24.879Z,96.17
2018-12-09T07:13:24.862Z,96.26
2018-12-09T07:14:24.853Z,96.17
2018-12-09T07:15:24.830Z,96.12
2018-12-09T07:16:24.820Z,95.93
2018-12-09T07:17:24.796Z,96.26
2018-12-09T07:18:24.783Z,96.40
2018-12-09T07:19:24.760Z,96.40
2018-12-09T07:20:24.750Z,96.40
2018-12-09T07:21:24.727Z,96.78
2018-12-09T07:22:24.714Z,96.88
2018-12-09T07:23:24.694Z,96.69
2018-12-09T07:24:24.682Z,96.78
2018-12-09T07:25:24.659Z,96.59
2018-12-09T07:26:24.640Z,96.88
2018-12-09T07:27:24.629Z,96.59
2018-12-09T07:28:24.615Z,96.59
2018-12-09T07:29:24.596Z,96.88
2018-12-09T07:30:24.575Z,96.88
2018-12-09T07:31:24.558Z,96.69
2018-12-09T07:32:24.546Z,96.88
2018-12-09T07:33:24.527Z,96.64
2018-12-09T07:34:24.511Z,96.64
2018-12-09T07:35:24.494Z,96.83
2018-12-09T07:36:24.472Z,96.50
2018-12-09T07:37:24.460Z,96.92
2018-12-09T07:38:24.444Z,96.73
2018-12-09T07:39:24.428Z,96.78
2018-12-09T07:40:24.410Z,96.83
2018-12-09T07:41:24.397Z,96.73
2018-12-09T07:42:24.370Z,96.92
2018-12-09T07:43:24.364Z,96.73
2018-12-09T07:44:24.340Z,96.92
2018-12-09T07:45:24.328Z,96.92
2018-12-09T07:46:24.305Z,96.78
2018-12-09T07:47:24.294Z,96.12
2018-12-09T07:48:24.276Z,96.17
2018-12-09T07:49:24.266Z,96.07
2018-12-09T07:50:24.240Z,96.69
2018-12-09T07:51:24.221Z,96.73
2018-12-09T07:52:24.209Z,96.78
2018-12-09T07:53:24.191Z,96.83
2018-12-09T07:54:24.173Z,96.55
2018-12-09T07:55:24.159Z,96.78
2018-12-09T07:56:24.147Z,96.88
2018-12-09T07:57:24.125Z,96.59
2018-12-09T07:58:24.111Z,96.73
2018-12-09T07:59:24.104Z,96.55
2018-12-09T08:00:24.070Z,96.88
2018-12-09T08:01:24.058Z,96.73
2018-12-09T08:02:24.044Z,96.73
2018-12-09T08:03:24.026Z,96.83
2018-12-09T08:04:24.008Z,96.73
2018-12-09T08:05:23.992Z,96.83
2018-12-09T08:06:23.972Z,96.45
2018-12-09T08:07:23.955Z,96.59
2018-12-09T08:08:23.937Z,96.64
2018-12-09T08:09:23.925Z,96.73
2018-12-09T08:10:23.913Z,96.78
2018-12-09T08:11:23.887Z,96.17
2018-12-09T08:12:23.871Z,96.92
2018-12-09T08:13:23.855Z,96.69
2018-12-09T08:14:23.842Z,96.50
2018-12-09T08:15:23.842Z,96.50
2018-12-09T08:16:23.802Z,97.06
2018-12-09T08:17:23.786Z,97.25
2018-12-09T08:18:23.764Z,97.35
2018-12-09T08:19:23.753Z,97.35
2018-12-09T08:20:23.737Z,97.25
2018-12-09T08:21:23.720Z,97.35
2018-12-09T08:22:23.707Z,97.35
2018-12-09T08:23:23.762Z,97.35
2018-12-09T08:24:23.668Z,97.35
2018-12-09T08:25:23.668Z,97.35
2018-12-09T08:26:23.634Z,97.35
2018-12-09T08:27:23.616Z,97.82
2018-12-09T08:28:23.605Z,97.44
2018-12-09T08:29:23.584Z,98.20
2018-12-09T08:30:23.584Z,99.15
2018-12-09T08:31:23.544Z,98.77
2018-12-09T08:32:23.533Z,99.24
2018-12-09T08:33:23.521Z,99.57
2018-12-09T08:34:23.500Z,99.62
2018-12-09T08:35:23.483Z,99.76
2018-12-09T08:36:23.465Z,99.99
2018-12-09T08:37:23.451Z,99.66
2018-12-09T08:38:23.435Z,99.85
2018-12-09T08:39:23.414Z,99.99
2018-12-09T08:40:23.396Z,99.99
2018-12-09T08:41:23.392Z,99.99
2018-12-09T08:42:23.366Z,99.99
2018-12-09T08:43:23.363Z,99.99
2018-12-09T08:44:23.333Z,99.99
2018-12-09T08:45:23.313Z,99.99
2018-12-09T08:46:23.297Z,99.99
2018-12-09T08:47:23.283Z,99.99
2018-12-09T08:48:23.260Z,99.99
2018-12-09T08:49:23.243Z,99.99
2018-12-09T08:50:23.218Z,99.99
2018-12-09T08:51:23.211Z,99.33
2018-12-09T08:53:18.041Z,99.24
2018-12-09T08:54:17.979Z,99.33
2018-12-09T08:56:43.609Z,98.16
2018-12-09T08:57:43.556Z,96.88
2018-12-09T08:59:38.398Z,92.33
2018-12-09T09:00:38.361Z,92.99
2018-12-09T09:02:33.225Z,87.02
2018-12-09T09:03:33.190Z,87.02
2018-12-09T09:05:48.004Z,88.82
2018-12-09T09:06:47.950Z,87.68
2018-12-09T09:08:43.357Z,86.26
2018-12-09T09:09:43.322Z,86.83
2018-12-09T09:11:38.205Z,86.93
2018-12-09T09:12:38.144Z,88.44
2018-12-09T09:14:32.813Z,89.96
2018-12-09T09:15:32.785Z,89.67
2018-12-09T09:17:48.143Z,87.02
2018-12-09T09:18:48.092Z,87.12
2018-12-09T09:20:44.945Z,86.83
2018-12-09T09:21:44.879Z,87.02
2018-12-09T09:23:40.722Z,87.97
2018-12-09T09:24:40.686Z,88.44
2018-12-09T09:26:36.047Z,87.97
2018-12-09T09:27:36.012Z,87.49
2018-12-09T09:29:30.893Z,86.45
2018-12-09T09:30:30.838Z,86.64
2018-12-09T09:32:25.297Z,84.65
2018-12-09T09:33:25.286Z,85.22
2018-12-09T09:35:20.612Z,90.05
2018-12-09T09:36:20.580Z,92.23
2018-12-09T09:38:15.485Z,90.05
2018-12-09T09:39:15.435Z,89.58
2018-12-09T09:41:10.634Z,88.96
2018-12-09T09:42:10.602Z,89.34
2018-12-09T09:44:05.353Z,88.10
2018-12-09T09:45:05.323Z,87.82
2018-12-09T09:47:01.664Z,87.35
2018-12-09T09:48:01.630Z,86.49
2018-12-09T09:49:56.531Z,85.26
2018-12-09T09:50:56.449Z,86.49
2018-12-09T09:52:51.389Z,85.36
2018-12-09T09:53:51.279Z,84.83
2018-12-09T09:55:47.646Z,83.84
2018-12-09T09:56:47.604Z,84.41
2018-12-09T09:58:43.464Z,84.92
2018-12-09T09:59:43.427Z,84.64
2018-12-09T10:01:38.300Z,84.74
2018-12-09T10:02:38.244Z,85.30
2018-12-09T10:04:33.099Z,84.83
2018-12-09T10:05:33.065Z,85.30
2018-12-09T10:07:28.436Z,85.78
2018-12-09T10:08:28.387Z,85.64
2018-12-09T10:10:23.280Z,86.02
2018-12-09T10:11:23.224Z,86.78
2018-12-09T10:13:18.664Z,85.74
2018-12-09T10:14:18.050Z,86.21
2018-12-09T10:16:14.407Z,86.68
2018-12-09T10:17:14.376Z,86.35
2018-12-09T10:19:08.594Z,86.63
2018-12-09T10:20:08.509Z,86.72
2018-12-09T10:22:03.385Z,86.35
2018-12-09T10:23:03.336Z,86.07
2018-12-09T10:24:58.191Z,85.40
2018-12-09T10:25:58.156Z,85.21
2018-12-09T10:27:52.811Z,85.17
2018-12-09T10:28:52.759Z,85.68
2018-12-09T10:30:47.616Z,85.49
2018-12-09T10:31:47.587Z,85.87
2018-12-09T10:33:42.463Z,86.91
2018-12-09T10:34:42.403Z,86.44
2018-12-09T10:36:37.844Z,87.11
2018-12-09T10:37:37.239Z,87.01
2018-12-09T10:39:31.945Z,86.97
2018-12-09T10:40:31.917Z,86.68
2018-12-09T10:42:26.826Z,87.45
2018-12-09T10:43:26.751Z,87.35
2018-12-09T10:45:22.588Z,87.16
2018-12-09T10:46:22.562Z,87.16
2018-12-09T10:48:16.578Z,87.25
2018-12-09T10:49:16.515Z,87.01
2018-12-09T10:51:11.392Z,86.91
2018-12-09T10:52:11.335Z,86.30
2018-12-09T10:54:06.215Z,86.59
2018-12-09T10:55:06.156Z,87.16
2018-12-09T10:57:01.540Z,86.78
2018-12-09T10:58:01.485Z,87.45
2018-12-09T10:59:56.861Z,87.73
2018-12-09T11:00:56.819Z,88.20
2018-12-09T11:02:52.681Z,88.20
2018-12-09T11:03:52.642Z,88.01
2018-12-09T11:05:47.627Z,87.45
2018-12-09T11:06:47.489Z,87.16
2018-12-09T11:08:42.335Z,86.87
2018-12-09T11:09:42.312Z,86.59
2018-12-09T11:11:37.680Z,86.59
2018-12-09T11:12:37.639Z,86.30
2018-12-09T11:14:32.523Z,87.54
2018-12-09T11:15:32.475Z,87.45
2018-12-09T11:17:27.340Z,87.73
2018-12-09T11:18:27.306Z,87.92
2018-12-09T11:20:22.154Z,87.92
2018-12-09T11:21:30.402Z,87.82
2018-12-09T11:23:18.093Z,87.35
2018-12-09T11:24:17.799Z,86.97
2018-12-09T11:26:12.797Z,87.54
2018-12-09T11:27:12.618Z,86.97
2018-12-09T11:29:07.569Z,87.35
2018-12-09T11:30:07.453Z,86.78
2018-12-09T11:32:03.901Z,87.54
2018-12-09T11:33:03.259Z,87.45
2018-12-09T11:34:59.726Z,87.45
2018-12-09T11:35:59.085Z,87.45
2018-12-09T11:37:55.544Z,87.54
2018-12-09T11:38:54.925Z,87.54
2018-12-09T11:40:49.779Z,88.01
2018-12-09T11:41:49.749Z,87.82
2018-12-09T11:43:45.105Z,87.82
2018-12-09T11:44:45.067Z,87.45
2018-12-09T11:46:40.095Z,87.16
2018-12-09T11:47:39.887Z,86.59
2018-12-09T11:49:53.749Z,87.54
2018-12-09T11:50:53.712Z,86.87
2018-12-09T11:52:48.564Z,86.59
2018-12-09T11:53:48.525Z,86.59
2018-12-09T11:55:43.873Z,87.25
2018-12-09T11:56:43.844Z,87.73
2018-12-09T11:58:39.234Z,87.45
2018-12-09T11:59:39.173Z,86.87
2018-12-09T12:01:34.322Z,87.73
2018-12-09T12:02:34.293Z,87.82
2018-12-09T12:04:30.174Z,88.01
2018-12-09T12:05:30.137Z,87.92
2018-12-09T12:07:25.011Z,87.63
2018-12-09T12:08:24.963Z,88.20
2018-12-09T12:10:20.805Z,87.82
2018-12-09T12:11:20.780Z,87.16
2018-12-09T12:13:15.643Z,86.82
2018-12-09T12:14:15.605Z,87.01
2018-12-09T12:16:10.967Z,86.91
2018-12-09T12:17:10.927Z,86.91
2018-12-09T12:19:05.815Z,83.55
2018-12-09T12:20:05.766Z,85.36
2018-12-09T12:22:00.627Z,86.40
2018-12-09T12:23:00.599Z,87.16
2018-12-09T12:24:55.461Z,86.87
2018-12-09T12:25:55.426Z,86.87
2018-12-09T12:27:50.462Z,88.10
2018-12-09T12:28:50.247Z,87.35
2018-12-09T12:30:45.114Z,88.87
2018-12-09T12:31:45.080Z,90.00
2018-12-09T12:33:39.959Z,90.38
2018-12-09T12:34:39.911Z,89.62
2018-12-09T12:36:34.696Z,88.39
2018-12-09T12:37:34.695Z,87.73
2018-12-09T12:39:30.498Z,86.97
2018-12-09T12:40:30.467Z,87.54
2018-12-09T12:42:25.930Z,86.68
2018-12-09T12:43:25.286Z,86.87
2018-12-09T12:44:25.279Z,87.06
2018-12-09T12:45:25.258Z,87.06
2018-12-09T12:46:25.263Z,87.06
2018-12-09T12:47:25.222Z,87.16
2018-12-09T12:48:25.203Z,86.87
2018-12-09T12:49:25.196Z,86.68
2018-12-09T12:50:25.176Z,86.87
2018-12-09T12:51:25.166Z,87.06
2018-12-09T12:52:25.151Z,86.49
2018-12-09T12:53:25.131Z,86.68
2018-12-09T12:54:25.109Z,86.78
2018-12-09T12:55:25.099Z,86.30
2018-12-09T12:56:25.080Z,86.21
2018-12-09T12:57:25.069Z,86.40
2018-12-09T12:58:25.048Z,86.87
2018-12-09T12:59:25.031Z,86.49
2018-12-09T13:00:25.018Z,87.35
2018-12-09T13:01:25.003Z,87.54
2018-12-09T13:02:24.986Z,87.40
2018-12-09T13:03:24.974Z,87.68
2018-12-09T13:04:24.959Z,88.35
2018-12-09T13:05:24.938Z,88.06
2018-12-09T13:06:24.926Z,88.16
2018-12-09T13:07:24.905Z,88.16
2018-12-09T13:08:24.897Z,87.97
2018-12-09T13:09:24.877Z,87.87
2018-12-09T13:10:24.863Z,87.97
2018-12-09T13:11:24.843Z,88.25
2018-12-09T13:12:24.823Z,88.82
2018-12-09T13:13:24.813Z,88.63
2018-12-09T13:14:24.797Z,88.73
2018-12-09T13:15:24.778Z,88.92
2018-12-09T13:16:24.766Z,89.29
2018-12-09T13:17:24.749Z,89.48
2018-12-09T13:18:24.744Z,89.20
2018-12-09T13:19:24.713Z,89.48
2018-12-09T13:20:24.697Z,89.39
2018-12-09T13:21:24.684Z,89.77
2018-12-09T13:22:24.669Z,89.01
2018-12-09T13:23:24.650Z,89.11
2018-12-09T13:24:24.636Z,88.82
2018-12-09T13:25:24.621Z,88.54
2018-12-09T13:26:24.599Z,88.63
2018-12-09T13:27:24.593Z,89.01
2018-12-09T13:28:24.575Z,89.20
2018-12-09T13:29:24.558Z,89.29
2018-12-09T13:30:24.535Z,89.29
2018-12-09T13:31:24.522Z,89.01
2018-12-09T13:32:24.529Z,89.39
2018-12-09T13:33:24.488Z,89.48
2018-12-09T13:34:24.482Z,89.48
2018-12-09T13:35:24.470Z,89.86
2018-12-09T13:36:24.454Z,89.77
2018-12-09T13:37:24.428Z,89.58
2018-12-09T13:38:24.405Z,89.77
2018-12-09T13:39:24.394Z,89.77
2018-12-09T13:40:24.380Z,90.15
2018-12-09T13:41:24.365Z,90.72
2018-12-09T13:42:24.354Z,90.43
2018-12-09T13:43:24.337Z,90.43
2018-12-09T13:44:24.317Z,90.62
2018-12-09T13:45:24.321Z,91.09
2018-12-09T13:46:24.279Z,91.38
2018-12-09T13:47:24.272Z,91.47
2018-12-09T13:48:24.251Z,91.38
2018-12-09T13:49:24.226Z,91.38
2018-12-09T13:50:24.218Z,91.19
2018-12-09T13:51:24.199Z,91.38
2018-12-09T13:52:24.182Z,91.57
2018-12-09T13:53:24.176Z,91.47
2018-12-09T13:54:24.161Z,91.47
2018-12-09T13:55:24.138Z,91.09
2018-12-09T13:56:24.129Z,91.38
2018-12-09T13:57:24.109Z,91.47
2018-12-09T13:58:24.090Z,91.38
2018-12-09T13:59:24.071Z,91.47
2018-12-09T14:00:24.054Z,91.47
2018-12-09T14:01:24.046Z,91.57
2018-12-09T14:02:24.022Z,91.28
2018-12-09T14:03:24.011Z,91.85
2018-12-09T14:04:23.988Z,91.66
2018-12-09T14:05:23.985Z,91.47
2018-12-09T14:06:23.959Z,91.95